sensor_id;sensor_type;location;lat;lon;timestamp;P1;durP1;ratioP1;P2;durP2;ratioP2
48813;SDS011;34634;44.108;3.074;2023-04-01T00:00:52;20.75;;;3.13;;
48813;SDS011;34634;44.108;3.074;2023-04-01T00:03:19;20.73;;;3.00;;
48813;SDS011;34634;44.108;3.074;2023-04-01T00:05:46;21.02;;;3.75;;
48813;SDS011;34634;44.108;3.074;2023-04-01T00:08:12;22.42;;;4.43;;
48813;SDS011;34634;44.108;3.074;2023-04-01T00:10:39;21.52;;;3.90;;
48813;SDS011;34634;44.108;3.074;2023-04-01T00:13:05;22.10;;;4.07;;
48813;SDS011;34634;44.108;3.074;2023-04-01T00:15:32;28.25;;;4.35;;
48813;SDS011;34634;44.108;3.074;2023-04-01T00:17:58;21.58;;;3.30;;
48813;SDS011;34634;44.108;3.074;2023-04-01T00:20:26;18.25;;;3.50;;
48813;SDS011;34634;44.108;3.074;2023-04-01T00:22:52;22.33;;;4.03;;
48813;SDS011;34634;44.108;3.074;2023-04-01T00:25:19;29.85;;;4.10;;
48813;SDS011;34634;44.108;3.074;2023-04-01T00:27:45;31.40;;;4.22;;
48813;SDS011;34634;44.108;3.074;2023-04-01T00:30:12;27.73;;;4.65;;
48813;SDS011;34634;44.108;3.074;2023-04-01T00:32:38;27.90;;;4.65;;
48813;SDS011;34634;44.108;3.074;2023-04-01T00:35:04;22.85;;;3.53;;
48813;SDS011;34634;44.108;3.074;2023-04-01T00:37:31;24.52;;;4.40;;
48813;SDS011;34634;44.108;3.074;2023-04-01T00:40:00;23.00;;;4.45;;
48813;SDS011;34634;44.108;3.074;2023-04-01T00:42:26;26.38;;;5.05;;
48813;SDS011;34634;44.108;3.074;2023-04-01T00:44:54;27.95;;;4.45;;
48813;SDS011;34634;44.108;3.074;2023-04-01T00:47:21;26.00;;;4.32;;
48813;SDS011;34634;44.108;3.074;2023-04-01T00:49:49;20.73;;;3.75;;
48813;SDS011;34634;44.108;3.074;2023-04-01T00:52:20;29.25;;;5.15;;
48813;SDS011;34634;44.108;3.074;2023-04-01T00:54:48;26.80;;;4.18;;
48813;SDS011;34634;44.108;3.074;2023-04-01T00:57:20;29.58;;;4.68;;
48813;SDS011;34634;44.108;3.074;2023-04-01T00:59:48;25.10;;;4.47;;
48813;SDS011;34634;44.108;3.074;2023-04-01T01:02:17;27.30;;;4.45;;
48813;SDS011;34634;44.108;3.074;2023-04-01T01:04:44;21.30;;;4.78;;
48813;SDS011;34634;44.108;3.074;2023-04-01T01:07:24;25.95;;;4.53;;
48813;SDS011;34634;44.108;3.074;2023-04-01T01:09:57;25.10;;;4.30;;
48813;SDS011;34634;44.108;3.074;2023-04-01T01:17:36;23.13;;;4.25;;
48813;SDS011;34634;44.108;3.074;2023-04-01T01:30:43;30.75;;;4.78;;
48813;SDS011;34634;44.108;3.074;2023-04-01T01:35:46;25.95;;;4.90;;
48813;SDS011;34634;44.108;3.074;2023-04-01T01:38:14;30.08;;;4.40;;
48813;SDS011;34634;44.108;3.074;2023-04-01T01:40:42;26.95;;;4.35;;
48813;SDS011;34634;44.108;3.074;2023-04-01T01:43:11;29.95;;;4.40;;
48813;SDS011;34634;44.108;3.074;2023-04-01T01:45:40;24.85;;;4.50;;
48813;SDS011;34634;44.108;3.074;2023-04-01T01:48:08;22.73;;;3.90;;
48813;SDS011;34634;44.108;3.074;2023-04-01T01:50:35;30.98;;;5.07;;
48813;SDS011;34634;44.108;3.074;2023-04-01T01:53:06;23.70;;;3.80;;
48813;SDS011;34634;44.108;3.074;2023-04-01T01:58:34;28.63;;;4.25;;
48813;SDS011;34634;44.108;3.074;2023-04-01T02:00:53;24.73;;;3.45;;
48813;SDS011;34634;44.108;3.074;2023-04-01T02:03:21;25.05;;;4.53;;
48813;SDS011;34634;44.108;3.074;2023-04-01T02:05:49;22.45;;;4.28;;
48813;SDS011;34634;44.108;3.074;2023-04-01T02:08:18;27.30;;;3.88;;
48813;SDS011;34634;44.108;3.074;2023-04-01T02:10:49;28.52;;;4.28;;
48813;SDS011;34634;44.108;3.074;2023-04-01T02:13:40;22.27;;;4.10;;
48813;SDS011;34634;44.108;3.074;2023-04-01T02:16:05;27.17;;;4.70;;
48813;SDS011;34634;44.108;3.074;2023-04-01T02:18:33;20.80;;;3.53;;
48813;SDS011;34634;44.108;3.074;2023-04-01T02:21:01;26.25;;;4.10;;
48813;SDS011;34634;44.108;3.074;2023-04-01T02:23:30;24.60;;;4.30;;
48813;SDS011;34634;44.108;3.074;2023-04-01T02:25:57;22.80;;;3.70;;
48813;SDS011;34634;44.108;3.074;2023-04-01T02:28:24;28.98;;;4.47;;
48813;SDS011;34634;44.108;3.074;2023-04-01T02:30:50;23.33;;;3.55;;
48813;SDS011;34634;44.108;3.074;2023-04-01T02:33:17;22.83;;;4.15;;
48813;SDS011;34634;44.108;3.074;2023-04-01T02:35:44;25.52;;;4.18;;
48813;SDS011;34634;44.108;3.074;2023-04-01T02:38:11;19.67;;;3.40;;
48813;SDS011;34634;44.108;3.074;2023-04-01T02:40:41;20.75;;;3.75;;
48813;SDS011;34634;44.108;3.074;2023-04-01T02:43:07;22.27;;;4.13;;
48813;SDS011;34634;44.108;3.074;2023-04-01T02:45:34;24.95;;;4.13;;
48813;SDS011;34634;44.108;3.074;2023-04-01T02:48:00;26.55;;;4.25;;
48813;SDS011;34634;44.108;3.074;2023-04-01T02:50:26;23.17;;;4.25;;
48813;SDS011;34634;44.108;3.074;2023-04-01T02:52:53;22.42;;;4.00;;
48813;SDS011;34634;44.108;3.074;2023-04-01T02:55:19;24.63;;;4.55;;
48813;SDS011;34634;44.108;3.074;2023-04-01T02:57:45;25.83;;;4.03;;
48813;SDS011;34634;44.108;3.074;2023-04-01T03:00:12;23.90;;;3.80;;
48813;SDS011;34634;44.108;3.074;2023-04-01T03:02:38;23.85;;;4.55;;
48813;SDS011;34634;44.108;3.074;2023-04-01T03:05:05;20.25;;;3.75;;
48813;SDS011;34634;44.108;3.074;2023-04-01T03:07:32;25.65;;;4.47;;
48813;SDS011;34634;44.108;3.074;2023-04-01T03:09:59;29.77;;;4.68;;
48813;SDS011;34634;44.108;3.074;2023-04-01T03:12:25;27.92;;;4.03;;
48813;SDS011;34634;44.108;3.074;2023-04-01T03:14:51;24.17;;;4.50;;
48813;SDS011;34634;44.108;3.074;2023-04-01T03:17:17;28.67;;;4.65;;
48813;SDS011;34634;44.108;3.074;2023-04-01T03:19:44;26.00;;;4.10;;
48813;SDS011;34634;44.108;3.074;2023-04-01T03:22:10;20.73;;;3.53;;
48813;SDS011;34634;44.108;3.074;2023-04-01T03:24:37;29.52;;;4.53;;
48813;SDS011;34634;44.108;3.074;2023-04-01T03:27:03;26.15;;;3.97;;
48813;SDS011;34634;44.108;3.074;2023-04-01T03:29:29;26.98;;;3.97;;
48813;SDS011;34634;44.108;3.074;2023-04-01T03:31:56;25.33;;;4.38;;
48813;SDS011;34634;44.108;3.074;2023-04-01T03:34:23;25.08;;;4.28;;
48813;SDS011;34634;44.108;3.074;2023-04-01T03:36:50;24.70;;;3.85;;
48813;SDS011;34634;44.108;3.074;2023-04-01T03:39:16;27.42;;;3.47;;
48813;SDS011;34634;44.108;3.074;2023-04-01T03:41:44;28.15;;;4.13;;
48813;SDS011;34634;44.108;3.074;2023-04-01T03:44:11;26.23;;;3.67;;
48813;SDS011;34634;44.108;3.074;2023-04-01T03:46:37;20.75;;;3.70;;
48813;SDS011;34634;44.108;3.074;2023-04-01T03:49:07;21.25;;;3.35;;
48813;SDS011;34634;44.108;3.074;2023-04-01T03:51:37;16.85;;;3.00;;
48813;SDS011;34634;44.108;3.074;2023-04-01T03:54:04;15.35;;;3.10;;
48813;SDS011;34634;44.108;3.074;2023-04-01T03:56:31;15.20;;;2.88;;
48813;SDS011;34634;44.108;3.074;2023-04-01T03:58:57;24.08;;;3.53;;
48813;SDS011;34634;44.108;3.074;2023-04-01T04:01:24;15.30;;;2.75;;
48813;SDS011;34634;44.108;3.074;2023-04-01T04:03:50;16.52;;;2.67;;
48813;SDS011;34634;44.108;3.074;2023-04-01T04:06:18;17.17;;;3.55;;
48813;SDS011;34634;44.108;3.074;2023-04-01T04:08:44;14.35;;;2.67;;
48813;SDS011;34634;44.108;3.074;2023-04-01T04:11:11;18.23;;;2.92;;
48813;SDS011;34634;44.108;3.074;2023-04-01T04:13:37;22.30;;;3.15;;
48813;SDS011;34634;44.108;3.074;2023-04-01T04:16:03;20.35;;;2.67;;
48813;SDS011;34634;44.108;3.074;2023-04-01T04:18:30;18.38;;;2.92;;
48813;SDS011;34634;44.108;3.074;2023-04-01T04:20:56;11.75;;;2.35;;
48813;SDS011;34634;44.108;3.074;2023-04-01T04:23:23;17.77;;;2.38;;
48813;SDS011;34634;44.108;3.074;2023-04-01T04:26:23;17.05;;;2.40;;
48813;SDS011;34634;44.108;3.074;2023-04-01T04:28:42;9.55;;;2.30;;
48813;SDS011;34634;44.108;3.074;2023-04-01T04:31:08;16.80;;;2.50;;
48813;SDS011;34634;44.108;3.074;2023-04-01T04:33:35;15.57;;;2.60;;
48813;SDS011;34634;44.108;3.074;2023-04-01T04:36:02;20.05;;;3.63;;
48813;SDS011;34634;44.108;3.074;2023-04-01T04:38:29;11.48;;;2.10;;
48813;SDS011;34634;44.108;3.074;2023-04-01T04:40:55;21.88;;;2.85;;
48813;SDS011;34634;44.108;3.074;2023-04-01T04:43:22;20.15;;;3.42;;
48813;SDS011;34634;44.108;3.074;2023-04-01T04:45:48;14.73;;;2.75;;
48813;SDS011;34634;44.108;3.074;2023-04-01T04:48:15;20.55;;;3.35;;
48813;SDS011;34634;44.108;3.074;2023-04-01T04:50:52;23.00;;;3.15;;
48813;SDS011;34634;44.108;3.074;2023-04-01T04:53:19;21.17;;;3.35;;
48813;SDS011;34634;44.108;3.074;2023-04-01T04:55:46;13.63;;;2.83;;
48813;SDS011;34634;44.108;3.074;2023-04-01T04:58:12;21.35;;;3.05;;
48813;SDS011;34634;44.108;3.074;2023-04-01T05:00:39;14.82;;;2.75;;
48813;SDS011;34634;44.108;3.074;2023-04-01T05:03:05;20.35;;;3.45;;
48813;SDS011;34634;44.108;3.074;2023-04-01T05:05:31;23.73;;;3.17;;
48813;SDS011;34634;44.108;3.074;2023-04-01T05:07:58;14.30;;;2.75;;
48813;SDS011;34634;44.108;3.074;2023-04-01T05:10:24;21.02;;;2.90;;
48813;SDS011;34634;44.108;3.074;2023-04-01T05:12:51;26.88;;;3.65;;
48813;SDS011;34634;44.108;3.074;2023-04-01T05:15:17;17.98;;;3.00;;
48813;SDS011;34634;44.108;3.074;2023-04-01T05:17:43;17.27;;;3.45;;
48813;SDS011;34634;44.108;3.074;2023-04-01T05:20:11;20.40;;;3.15;;
48813;SDS011;34634;44.108;3.074;2023-04-01T05:22:38;17.70;;;3.25;;
48813;SDS011;34634;44.108;3.074;2023-04-01T05:25:04;17.00;;;2.60;;
48813;SDS011;34634;44.108;3.074;2023-04-01T05:27:31;19.77;;;2.72;;
48813;SDS011;34634;44.108;3.074;2023-04-01T05:29:57;17.92;;;2.88;;
48813;SDS011;34634;44.108;3.074;2023-04-01T05:32:24;18.00;;;3.45;;
48813;SDS011;34634;44.108;3.074;2023-04-01T05:34:51;21.08;;;3.13;;
48813;SDS011;34634;44.108;3.074;2023-04-01T05:37:17;20.98;;;3.28;;
48813;SDS011;34634;44.108;3.074;2023-04-01T05:39:43;19.63;;;3.33;;
48813;SDS011;34634;44.108;3.074;2023-04-01T05:42:10;16.88;;;3.28;;
48813;SDS011;34634;44.108;3.074;2023-04-01T05:44:36;14.10;;;3.45;;
48813;SDS011;34634;44.108;3.074;2023-04-01T05:47:03;17.55;;;2.88;;
48813;SDS011;34634;44.108;3.074;2023-04-01T05:49:30;13.45;;;2.70;;
48813;SDS011;34634;44.108;3.074;2023-04-01T05:51:56;7.57;;;1.60;;
48813;SDS011;34634;44.108;3.074;2023-04-01T05:54:23;8.50;;;1.77;;
48813;SDS011;34634;44.108;3.074;2023-04-01T05:56:49;6.18;;;1.38;;
48813;SDS011;34634;44.108;3.074;2023-04-01T05:59:15;8.25;;;2.25;;
48813;SDS011;34634;44.108;3.074;2023-04-01T06:01:42;7.40;;;1.77;;
48813;SDS011;34634;44.108;3.074;2023-04-01T06:04:15;7.75;;;1.50;;
48813;SDS011;34634;44.108;3.074;2023-04-01T06:06:42;6.00;;;1.73;;
48813;SDS011;34634;44.108;3.074;2023-04-01T06:09:15;13.10;;;1.98;;
48813;SDS011;34634;44.108;3.074;2023-04-01T06:19:33;14.00;;;2.33;;
48813;SDS011;34634;44.108;3.074;2023-04-01T06:49:48;19.27;;;3.35;;
48813;SDS011;34634;44.108;3.074;2023-04-01T06:57:48;28.77;;;7.25;;
48813;SDS011;34634;44.108;3.074;2023-04-01T07:00:27;48.15;;;19.25;;
48813;SDS011;34634;44.108;3.074;2023-04-01T07:05:39;25.38;;;6.97;;
48813;SDS011;34634;44.108;3.074;2023-04-01T07:08:08;19.63;;;4.00;;
48813;SDS011;34634;44.108;3.074;2023-04-01T07:13:36;19.75;;;2.95;;
48813;SDS011;34634;44.108;3.074;2023-04-01T07:16:08;15.18;;;3.17;;
48813;SDS011;34634;44.108;3.074;2023-04-01T07:18:39;19.90;;;4.78;;
48813;SDS011;34634;44.108;3.074;2023-04-01T07:23:38;25.27;;;6.03;;
48813;SDS011;34634;44.108;3.074;2023-04-01T07:28:31;26.55;;;9.90;;
48813;SDS011;34634;44.108;3.074;2023-04-01T07:33:39;21.85;;;6.80;;
48813;SDS011;34634;44.108;3.074;2023-04-01T07:46:53;22.13;;;3.80;;
48813;SDS011;34634;44.108;3.074;2023-04-01T07:49:24;23.80;;;4.18;;
48813;SDS011;34634;44.108;3.074;2023-04-01T07:52:00;21.02;;;3.80;;
48813;SDS011;34634;44.108;3.074;2023-04-01T08:00:04;19.58;;;3.20;;
48813;SDS011;34634;44.108;3.074;2023-04-01T08:04:55;17.75;;;3.67;;
48813;SDS011;34634;44.108;3.074;2023-04-01T08:07:37;15.75;;;3.55;;
48813;SDS011;34634;44.108;3.074;2023-04-01T08:10:16;18.98;;;3.22;;
48813;SDS011;34634;44.108;3.074;2023-04-01T08:12:51;18.83;;;4.63;;
48813;SDS011;34634;44.108;3.074;2023-04-01T08:15:34;15.40;;;3.92;;
48813;SDS011;34634;44.108;3.074;2023-04-01T08:18:06;15.30;;;3.45;;
48813;SDS011;34634;44.108;3.074;2023-04-01T08:25:37;17.77;;;3.90;;
48813;SDS011;34634;44.108;3.074;2023-04-01T08:30:49;22.55;;;5.65;;
48813;SDS011;34634;44.108;3.074;2023-04-01T08:33:19;11.98;;;3.90;;
48813;SDS011;34634;44.108;3.074;2023-04-01T08:35:52;16.33;;;4.15;;
48813;SDS011;34634;44.108;3.074;2023-04-01T08:38:26;15.25;;;5.10;;
48813;SDS011;34634;44.108;3.074;2023-04-01T08:51:17;13.02;;;2.85;;
48813;SDS011;34634;44.108;3.074;2023-04-01T08:56:27;8.75;;;2.53;;
48813;SDS011;34634;44.108;3.074;2023-04-01T09:25:15;11.98;;;2.55;;
48813;SDS011;34634;44.108;3.074;2023-04-01T09:30:43;10.73;;;2.65;;
48813;SDS011;34634;44.108;3.074;2023-04-01T09:38:52;12.27;;;2.78;;
48813;SDS011;34634;44.108;3.074;2023-04-01T10:35:35;10.18;;;2.70;;
48813;SDS011;34634;44.108;3.074;2023-04-01T10:41:11;8.18;;;2.78;;
48813;SDS011;34634;44.108;3.074;2023-04-01T10:53:43;8.57;;;2.27;;
48813;SDS011;34634;44.108;3.074;2023-04-01T11:06:51;11.18;;;2.65;;
48813;SDS011;34634;44.108;3.074;2023-04-01T11:17:15;9.18;;;2.80;;
48813;SDS011;34634;44.108;3.074;2023-04-01T11:22:46;13.63;;;3.28;;
48813;SDS011;34634;44.108;3.074;2023-04-01T11:26:00;15.23;;;2.85;;
48813;SDS011;34634;44.108;3.074;2023-04-01T11:33:28;7.82;;;2.60;;
48813;SDS011;34634;44.108;3.074;2023-04-01T11:56:48;10.07;;;2.58;;
48813;SDS011;34634;44.108;3.074;2023-04-01T12:02:05;9.35;;;2.97;;
48813;SDS011;34634;44.108;3.074;2023-04-01T12:18:13;7.40;;;1.70;;
48813;SDS011;34634;44.108;3.074;2023-04-01T12:20:50;9.07;;;1.88;;
48813;SDS011;34634;44.108;3.074;2023-04-01T12:31:06;6.95;;;2.08;;
48813;SDS011;34634;44.108;3.074;2023-04-01T12:36:35;11.25;;;2.38;;
48813;SDS011;34634;44.108;3.074;2023-04-01T12:52:11;8.82;;;2.40;;
48813;SDS011;34634;44.108;3.074;2023-04-01T13:02:40;8.10;;;2.47;;
48813;SDS011;34634;44.108;3.074;2023-04-01T13:08:26;7.45;;;2.60;;
48813;SDS011;34634;44.108;3.074;2023-04-01T13:13:33;13.07;;;2.30;;
48813;SDS011;34634;44.108;3.074;2023-04-01T13:28:32;11.02;;;2.70;;
48813;SDS011;34634;44.108;3.074;2023-04-01T13:36:11;8.57;;;2.25;;
48813;SDS011;34634;44.108;3.074;2023-04-01T13:38:58;11.65;;;2.22;;
48813;SDS011;34634;44.108;3.074;2023-04-01T13:44:09;5.95;;;1.88;;
48813;SDS011;34634;44.108;3.074;2023-04-01T14:05:29;6.57;;;1.75;;
48813;SDS011;34634;44.108;3.074;2023-04-01T14:10:39;6.28;;;1.27;;
48813;SDS011;34634;44.108;3.074;2023-04-01T14:31:18;8.13;;;1.60;;
48813;SDS011;34634;44.108;3.074;2023-04-01T14:38:54;8.52;;;2.00;;
48813;SDS011;34634;44.108;3.074;2023-04-01T14:41:29;8.98;;;2.20;;
48813;SDS011;34634;44.108;3.074;2023-04-01T14:51:45;12.73;;;2.25;;
48813;SDS011;34634;44.108;3.074;2023-04-01T14:54:30;9.93;;;1.85;;
48813;SDS011;34634;44.108;3.074;2023-04-01T14:57:42;9.30;;;2.67;;
48813;SDS011;34634;44.108;3.074;2023-04-01T15:18:08;9.90;;;2.85;;
48813;SDS011;34634;44.108;3.074;2023-04-01T15:20:48;6.45;;;1.90;;
48813;SDS011;34634;44.108;3.074;2023-04-01T15:23:34;11.17;;;2.40;;
48813;SDS011;34634;44.108;3.074;2023-04-01T15:26:11;6.70;;;1.63;;
48813;SDS011;34634;44.108;3.074;2023-04-01T15:33:39;9.35;;;1.98;;
48813;SDS011;34634;44.108;3.074;2023-04-01T15:43:51;2.63;;;0.88;;
48813;SDS011;34634;44.108;3.074;2023-04-01T15:46:21;3.83;;;1.55;;
48813;SDS011;34634;44.108;3.074;2023-04-01T15:49:01;7.15;;;3.22;;
48813;SDS011;34634;44.108;3.074;2023-04-01T15:51:38;4.15;;;2.45;;
48813;SDS011;34634;44.108;3.074;2023-04-01T15:54:24;1.67;;;1.58;;
48813;SDS011;34634;44.108;3.074;2023-04-01T15:57:04;4.57;;;2.13;;
48813;SDS011;34634;44.108;3.074;2023-04-01T16:07:06;2.10;;;1.17;;
48813;SDS011;34634;44.108;3.074;2023-04-01T16:10:16;2.47;;;1.55;;
48813;SDS011;34634;44.108;3.074;2023-04-01T16:15:09;4.15;;;1.50;;
48813;SDS011;34634;44.108;3.074;2023-04-01T16:17:48;4.72;;;2.25;;
48813;SDS011;34634;44.108;3.074;2023-04-01T16:22:48;2.38;;;1.58;;
48813;SDS011;34634;44.108;3.074;2023-04-01T16:28:13;3.58;;;1.90;;
48813;SDS011;34634;44.108;3.074;2023-04-01T16:30:48;5.50;;;2.78;;
48813;SDS011;34634;44.108;3.074;2023-04-01T16:33:22;3.05;;;2.10;;
48813;SDS011;34634;44.108;3.074;2023-04-01T16:38:36;4.85;;;2.97;;
48813;SDS011;34634;44.108;3.074;2023-04-01T16:41:07;7.63;;;3.63;;
48813;SDS011;34634;44.108;3.074;2023-04-01T16:43:50;6.00;;;3.08;;
48813;SDS011;34634;44.108;3.074;2023-04-01T16:46:32;6.03;;;2.90;;
48813;SDS011;34634;44.108;3.074;2023-04-01T16:54:23;9.68;;;3.25;;
48813;SDS011;34634;44.108;3.074;2023-04-01T16:57:02;8.07;;;4.25;;
48813;SDS011;34634;44.108;3.074;2023-04-01T16:59:32;13.50;;;8.15;;
48813;SDS011;34634;44.108;3.074;2023-04-01T17:07:11;8.70;;;3.05;;
48813;SDS011;34634;44.108;3.074;2023-04-01T17:12:25;6.63;;;2.72;;
48813;SDS011;34634;44.108;3.074;2023-04-01T17:23:00;7.40;;;3.53;;
48813;SDS011;34634;44.108;3.074;2023-04-01T17:28:05;5.25;;;1.83;;
48813;SDS011;34634;44.108;3.074;2023-04-01T17:30:49;6.07;;;1.17;;
48813;SDS011;34634;44.108;3.074;2023-04-01T17:33:25;2.35;;;1.33;;
48813;SDS011;34634;44.108;3.074;2023-04-01T17:41:24;6.25;;;2.05;;
48813;SDS011;34634;44.108;3.074;2023-04-01T17:44:10;3.83;;;2.03;;
48813;SDS011;34634;44.108;3.074;2023-04-01T17:51:48;3.65;;;1.30;;
48813;SDS011;34634;44.108;3.074;2023-04-01T18:02:20;5.28;;;1.95;;
48813;SDS011;34634;44.108;3.074;2023-04-01T18:22:59;4.15;;;2.97;;
48813;SDS011;34634;44.108;3.074;2023-04-01T18:28:11;2.85;;;1.70;;
48813;SDS011;34634;44.108;3.074;2023-04-01T18:30:41;5.00;;;2.25;;
48813;SDS011;34634;44.108;3.074;2023-04-01T18:38:12;13.93;;;9.18;;
48813;SDS011;34634;44.108;3.074;2023-04-01T18:46:20;5.63;;;3.97;;
48813;SDS011;34634;44.108;3.074;2023-04-01T18:48:52;6.63;;;3.80;;
48813;SDS011;34634;44.108;3.074;2023-04-01T18:51:22;7.45;;;4.20;;
48813;SDS011;34634;44.108;3.074;2023-04-01T18:58:54;5.50;;;3.50;;
48813;SDS011;34634;44.108;3.074;2023-04-01T19:01:33;4.30;;;2.42;;
48813;SDS011;34634;44.108;3.074;2023-04-01T19:06:35;6.65;;;5.20;;
48813;SDS011;34634;44.108;3.074;2023-04-01T19:39:56;12.70;;;8.38;;
48813;SDS011;34634;44.108;3.074;2023-04-01T19:53:18;19.88;;;14.05;;
48813;SDS011;34634;44.108;3.074;2023-04-01T20:00:41;10.18;;;6.85;;
48813;SDS011;34634;44.108;3.074;2023-04-01T20:03:23;8.93;;;3.97;;
48813;SDS011;34634;44.108;3.074;2023-04-01T20:11:08;4.72;;;2.00;;
48813;SDS011;34634;44.108;3.074;2023-04-01T20:14:24;1.75;;;1.13;;
48813;SDS011;34634;44.108;3.074;2023-04-01T20:16:37;2.60;;;1.15;;
48813;SDS011;34634;44.108;3.074;2023-04-01T20:19:06;4.50;;;1.80;;
48813;SDS011;34634;44.108;3.074;2023-04-01T20:21:45;2.38;;;1.00;;
48813;SDS011;34634;44.108;3.074;2023-04-01T20:29:41;3.70;;;0.80;;
48813;SDS011;34634;44.108;3.074;2023-04-01T20:35:22;2.83;;;0.90;;
48813;SDS011;34634;44.108;3.074;2023-04-01T20:45:40;3.50;;;1.23;;
48813;SDS011;34634;44.108;3.074;2023-04-01T20:48:21;1.75;;;0.70;;
48813;SDS011;34634;44.108;3.074;2023-04-01T20:50:52;0.38;;;0.38;;
48813;SDS011;34634;44.108;3.074;2023-04-01T20:53:20;0.68;;;0.50;;
48813;SDS011;34634;44.108;3.074;2023-04-01T20:55:55;1.17;;;0.77;;
48813;SDS011;34634;44.108;3.074;2023-04-01T21:09:02;5.18;;;2.65;;
48813;SDS011;34634;44.108;3.074;2023-04-01T21:11:38;8.10;;;4.78;;
48813;SDS011;34634;44.108;3.074;2023-04-01T21:35:03;6.35;;;4.22;;
48813;SDS011;34634;44.108;3.074;2023-04-01T21:40:15;5.10;;;1.50;;
48813;SDS011;34634;44.108;3.074;2023-04-01T21:53:33;2.58;;;1.70;;
48813;SDS011;34634;44.108;3.074;2023-04-01T21:58:33;2.25;;;1.20;;
48813;SDS011;34634;44.108;3.074;2023-04-01T22:06:19;2.92;;;1.63;;
48813;SDS011;34634;44.108;3.074;2023-04-01T22:08:56;2.20;;;1.30;;
48813;SDS011;34634;44.108;3.074;2023-04-01T22:14:09;1.63;;;0.85;;
48813;SDS011;34634;44.108;3.074;2023-04-01T22:16:48;0.90;;;0.75;;
48813;SDS011;34634;44.108;3.074;2023-04-01T22:19:36;2.25;;;1.20;;
48813;SDS011;34634;44.108;3.074;2023-04-01T22:25:23;1.48;;;1.20;;
48813;SDS011;34634;44.108;3.074;2023-04-01T22:27:24;1.00;;;0.73;;
48813;SDS011;34634;44.108;3.074;2023-04-01T22:32:42;3.63;;;1.90;;
48813;SDS011;34634;44.108;3.074;2023-04-01T22:35:17;2.28;;;0.90;;
48813;SDS011;34634;44.108;3.074;2023-04-01T22:42:44;0.98;;;0.80;;
48813;SDS011;34634;44.108;3.074;2023-04-01T22:45:24;5.10;;;2.35;;
48813;SDS011;34634;44.108;3.074;2023-04-01T22:50:34;13.55;;;5.30;;
48813;SDS011;34634;44.108;3.074;2023-04-01T22:53:07;13.40;;;5.68;;
48813;SDS011;34634;44.108;3.074;2023-04-01T22:55:43;10.80;;;4.75;;
48813;SDS011;34634;44.108;3.074;2023-04-01T22:58:18;5.28;;;2.53;;
48813;SDS011;34634;44.108;3.074;2023-04-01T23:00:50;5.05;;;2.35;;
48813;SDS011;34634;44.108;3.074;2023-04-01T23:03:22;10.85;;;5.55;;
48813;SDS011;34634;44.108;3.074;2023-04-01T23:11:39;1.77;;;0.90;;
48813;SDS011;34634;44.108;3.074;2023-04-01T23:16:37;4.25;;;2.50;;
48813;SDS011;34634;44.108;3.074;2023-04-01T23:24:25;13.48;;;5.85;;
48813;SDS011;34634;44.108;3.074;2023-04-01T23:29:20;5.35;;;2.55;;
48813;SDS011;34634;44.108;3.074;2023-04-01T23:31:48;4.13;;;2.30;;
48813;SDS011;34634;44.108;3.074;2023-04-01T23:34:23;2.13;;;1.15;;
48813;SDS011;34634;44.108;3.074;2023-04-01T23:36:55;1.05;;;0.65;;
48813;SDS011;34634;44.108;3.074;2023-04-01T23:41:48;1.02;;;0.70;;
48813;SDS011;34634;44.108;3.074;2023-04-01T23:44:15;1.85;;;1.40;;
48813;SDS011;34634;44.108;3.074;2023-04-01T23:46:42;4.97;;;2.08;;
48813;SDS011;34634;44.108;3.074;2023-04-01T23:49:14;10.05;;;4.68;;
48813;SDS011;34634;44.108;3.074;2023-04-01T23:54:18;5.22;;;2.70;;
48813;SDS011;34634;44.108;3.074;2023-04-01T23:56:48;0.60;;;0.45;;
48813;SDS011;34634;44.108;3.074;2023-04-01T23:59:31;0.40;;;0.30;;
